Time;durP1;ratioP1;P1;durP2;ratioP2;P2;SDS_P1;SDS_P2;PMS_P1;PMS_P2;Temp;Humidity;BMP_temperature;BMP_pressure;BME280_temperature;BME280_humidity;BME280_pressure;Samples;Min_cycle;Max_cycle;Signal;HPM_P1;HPM_P2
2023/06/29 02:00:13;;;;;;;48.70;14.45;;;;;;;;;;5105578;27;20148;-77
2023/06/29 02:02:40;;;;;;;32.95;13.93;;;;;;;;;;4351399;33;20044;-76
2023/06/29 02:05:07;;;;;;;63.70;14.75;;;;;;;;;;4352859;33;20074;-77
2023/06/29 02:07:33;;;;;;;418.37;21.73;;;;;;;;;;4353772;33;20487;-75
2023/06/29 02:09:59;;;;;;;126.68;15.55;;;;;;;;;;4352600;33;20039;-78
2023/06/29 02:12:26;;;;;;;124.10;15.85;;;;;;;;;;4352240;33;20472;-77
2023/06/29 02:14:52;;;;;;;50.08;14.87;;;;;;;;;;4321255;33;20083;-78
2023/06/29 02:17:18;;;;;;;157.37;16.45;;;;;;;;;;4319517;33;20098;-77
2023/06/29 02:19:46;;;;;;;96.20;14.32;;;;;;;;;;4323488;33;20044;-76
2023/06/29 02:22:13;;;;;;;66.97;13.80;;;;;;;;;;4330049;33;20459;-76
2023/06/29 02:24:40;;;;;;;139.52;16.02;;;;;;;;;;4327764;33;20045;-77
2023/06/29 02:27:07;;;;;;;142.50;15.15;;;;;;;;;;4313536;33;20048;-77
2023/06/29 02:29:33;;;;;;;174.35;16.67;;;;;;;;;;4302270;33;20443;-77
2023/06/29 02:31:59;;;;;;;297.55;16.48;;;;;;;;;;4313138;33;20080;-77
2023/06/29 02:34:26;;;;;;;242.90;16.20;;;;;;;;;;4313477;33;20108;-77
2023/06/29 02:36:53;;;;;;;176.70;15.75;;;;;;;;;;4309591;33;20098;-77
2023/06/29 02:39:19;;;;;;;104.65;14.80;;;;;;;;;;4307689;33;20045;-77
2023/06/29 02:41:45;;;;;;;189.65;15.82;;;;;;;;;;4325860;33;20052;-76
2023/06/29 02:44:11;;;;;;;236.75;18.23;;;;;;;;;;4323696;33;20084;-76
2023/06/29 02:46:37;;;;;;;45.47;14.98;;;;;;;;;;4347264;32;20651;-76
2023/06/29 02:49:04;;;;;;;160.05;17.37;;;;;;;;;;4352543;32;20055;-75
2023/06/29 02:51:30;;;;;;;74.60;15.90;;;;;;;;;;4353093;32;20037;-78
2023/06/29 02:53:56;;;;;;;62.83;13.43;;;;;;;;;;4352902;32;20047;-76
2023/06/29 02:56:23;;;;;;;165.50;15.75;;;;;;;;;;4353606;32;20047;-76
2023/06/29 02:58:49;;;;;;;175.00;15.05;;;;;;;;;;4353649;32;20069;-76
2023/06/29 03:01:18;;;;;;;160.48;16.25;;;;;;;;;;4343873;32;20428;-76
2023/06/29 03:03:45;;;;;;;138.88;14.00;;;;;;;;;;4339255;33;20531;-76
2023/06/29 03:06:11;;;;;;;36.42;13.45;;;;;;;;;;4348261;32;20133;-76
2023/06/29 03:08:37;;;;;;;83.37;12.20;;;;;;;;;;4353508;32;20361;-76
2023/06/29 03:11:04;;;;;;;157.90;14.02;;;;;;;;;;4353361;32;20417;-76
2023/06/29 03:13:36;;;;;;;171.85;14.57;;;;;;;;;;4351456;32;20062;-76
2023/06/29 03:16:03;;;;;;;157.88;14.60;;;;;;;;;;4352498;32;20261;-77
2023/06/29 03:18:29;;;;;;;259.58;15.10;;;;;;;;;;4353438;32;20059;-77
2023/06/29 03:20:55;;;;;;;65.28;11.95;;;;;;;;;;4337391;33;20048;-77
2023/06/29 03:23:21;;;;;;;82.00;13.45;;;;;;;;;;4337583;33;20102;-78
2023/06/29 03:25:48;;;;;;;127.32;14.85;;;;;;;;;;4337980;33;20764;-77
2023/06/29 03:28:14;;;;;;;282.83;16.00;;;;;;;;;;4338636;33;20070;-77
2023/06/29 03:30:40;;;;;;;111.35;12.68;;;;;;;;;;4337797;33;20048;-77
2023/06/29 03:33:06;;;;;;;170.43;13.43;;;;;;;;;;4338483;33;20056;-76
2023/06/29 03:35:33;;;;;;;113.68;13.00;;;;;;;;;;4336529;33;20051;-76
2023/06/29 03:37:59;;;;;;;98.47;13.30;;;;;;;;;;4350724;32;20546;-76
2023/06/29 03:40:25;;;;;;;35.63;13.38;;;;;;;;;;4353118;32;20048;-76
2023/06/29 03:42:51;;;;;;;154.27;13.85;;;;;;;;;;4353131;32;20414;-76
2023/06/29 03:45:17;;;;;;;198.57;15.63;;;;;;;;;;4337053;33;20081;-77
2023/06/29 03:47:43;;;;;;;28.87;13.68;;;;;;;;;;4336807;33;20051;-76
2023/06/29 03:50:10;;;;;;;78.53;13.27;;;;;;;;;;4338311;33;20066;-76
2023/06/29 03:52:36;;;;;;;204.30;15.63;;;;;;;;;;4349412;32;20060;-76
2023/06/29 03:55:02;;;;;;;137.00;15.50;;;;;;;;;;4350801;32;20048;-77
2023/06/29 03:57:29;;;;;;;101.43;14.35;;;;;;;;;;4343354;32;20117;-78
2023/06/29 03:59:55;;;;;;;265.65;17.05;;;;;;;;;;4335994;33;20110;-77
2023/06/29 04:02:21;;;;;;;175.65;15.85;;;;;;;;;;4337808;33;20188;-76
2023/06/29 04:04:48;;;;;;;141.05;15.70;;;;;;;;;;4337826;33;20053;-76
2023/06/29 04:07:14;;;;;;;62.17;13.80;;;;;;;;;;4336394;33;20170;-76
2023/06/29 04:09:46;;;;;;;;;;;;;;;;;;4335031;33;20324;-77
2023/06/29 04:12:12;;;;;;;69.37;15.02;;;;;;;;;;4337725;33;19969;-76
2023/06/29 04:14:38;;;;;;;104.93;16.58;;;;;;;;;;4337502;33;20123;-77
2023/06/29 04:17:04;;;;;;;84.62;14.80;;;;;;;;;;4349883;32;20448;-76
2023/06/29 04:19:30;;;;;;;123.07;15.35;;;;;;;;;;4352588;32;20095;-78
2023/06/29 04:21:57;;;;;;;39.35;14.65;;;;;;;;;;4341574;32;20271;-78
2023/06/29 04:24:23;;;;;;;99.13;15.27;;;;;;;;;;4351747;32;20039;-77
2023/06/29 04:26:49;;;;;;;92.32;15.85;;;;;;;;;;4352822;32;20044;-77
2023/06/29 04:29:16;;;;;;;45.20;15.00;;;;;;;;;;4352330;32;20031;-77
2023/06/29 04:31:42;;;;;;;97.88;15.05;;;;;;;;;;4352513;32;20059;-77
2023/06/29 04:34:08;;;;;;;67.37;15.10;;;;;;;;;;4350357;32;20104;-76
2023/06/29 04:36:34;;;;;;;160.55;17.73;;;;;;;;;;4352529;32;20077;-78
2023/06/29 04:39:00;;;;;;;58.47;15.07;;;;;;;;;;4352293;32;20091;-77
2023/06/29 04:41:33;;;;;;;62.58;13.90;;;;;;;;;;4352218;32;20081;-77
2023/06/29 04:43:59;;;;;;;21.27;14.38;;;;;;;;;;4351300;32;20393;-76
2023/06/29 04:46:27;;;;;;;48.40;14.27;;;;;;;;;;4343196;32;20056;-77
2023/06/29 04:48:54;;;;;;;26.52;15.95;;;;;;;;;;4351766;32;20054;-77
2023/06/29 04:51:20;;;;;;;29.55;13.57;;;;;;;;;;4351839;32;20043;-75
2023/06/29 04:53:46;;;;;;;41.15;15.18;;;;;;;;;;4362796;32;20040;-77
2023/06/29 04:56:12;;;;;;;71.43;14.55;;;;;;;;;;4361913;32;20048;-77
2023/06/29 04:58:38;;;;;;;39.38;13.40;;;;;;;;;;4366350;32;20499;-76
2023/06/29 05:01:05;;;;;;;25.55;13.93;;;;;;;;;;4365495;32;20415;-75
2023/06/29 05:03:37;;;;;;;54.28;14.35;;;;;;;;;;4366082;32;20043;-75
2023/06/29 05:06:03;;;;;;;19.23;13.73;;;;;;;;;;4365031;32;20476;-76
2023/06/29 05:08:29;;;;;;;22.83;12.93;;;;;;;;;;4364580;32;20055;-76
2023/06/29 05:10:56;;;;;;;25.88;12.27;;;;;;;;;;4350642;32;20035;-76
2023/06/29 05:13:22;;;;;;;29.58;12.57;;;;;;;;;;4352048;32;20028;-76
2023/06/29 05:15:48;;;;;;;29.80;13.52;;;;;;;;;;4351607;32;20091;-76
2023/06/29 05:18:14;;;;;;;18.70;13.75;;;;;;;;;;4351966;32;20065;-78
2023/06/29 05:20:41;;;;;;;18.75;13.05;;;;;;;;;;4337290;32;20089;-75
2023/06/29 05:23:09;;;;;;;19.60;12.50;;;;;;;;;;4335509;33;20180;-76
2023/06/29 05:25:35;;;;;;;24.37;14.07;;;;;;;;;;4336326;33;20221;-76
2023/06/29 05:28:01;;;;;;;21.37;11.90;;;;;;;;;;4336548;33;20401;-76
2023/06/29 05:30:28;;;;;;;26.08;13.00;;;;;;;;;;4335478;33;20055;-77
2023/06/29 05:32:54;;;;;;;23.27;14.02;;;;;;;;;;4331038;33;20033;-77
2023/06/29 05:35:20;;;;;;;19.27;13.23;;;;;;;;;;4321932;33;20152;-77
2023/06/29 05:37:47;;;;;;;28.62;14.00;;;;;;;;;;4321439;33;20058;-77
2023/06/29 05:40:13;;;;;;;19.45;12.68;;;;;;;;;;4319096;33;20123;-77
2023/06/29 05:42:40;;;;;;;12.40;10.30;;;;;;;;;;4317142;33;20020;-77
2023/06/29 05:45:06;;;;;;;16.30;10.68;;;;;;;;;;4319916;33;20067;-77
2023/06/29 05:47:32;;;;;;;16.17;11.82;;;;;;;;;;4330944;33;20039;-77
2023/06/29 05:49:58;;;;;;;13.75;10.18;;;;;;;;;;4335683;33;20195;-77
2023/06/29 05:52:24;;;;;;;15.90;11.45;;;;;;;;;;4336623;33;20040;-77
2023/06/29 05:54:51;;;;;;;22.15;11.95;;;;;;;;;;4335623;33;20384;-77
2023/06/29 05:57:17;;;;;;;17.42;14.00;;;;;;;;;;4335322;33;20028;-77
2023/06/29 05:59:43;;;;;;;13.10;10.80;;;;;;;;;;4334914;33;20064;-77
2023/06/29 06:02:09;;;;;;;17.02;11.38;;;;;;;;;;4337014;33;20055;-77
2023/06/29 06:04:36;;;;;;;17.98;13.13;;;;;;;;;;4337394;33;20748;-77
2023/06/29 06:07:02;;;;;;;22.08;12.43;;;;;;;;;;4350217;32;20401;-77
2023/06/29 06:09:28;;;;;;;17.50;12.57;;;;;;;;;;4356351;32;20519;-77
2023/06/29 06:11:54;;;;;;;15.55;11.48;;;;;;;;;;4353290;32;20056;-77
2023/06/29 06:14:28;;;;;;;16.80;12.10;;;;;;;;;;4348061;32;20052;-77
2023/06/29 06:16:54;;;;;;;14.48;11.07;;;;;;;;;;4356906;32;20073;-76
2023/06/29 06:19:20;;;;;;;16.90;11.82;;;;;;;;;;4356818;32;20074;-77
2023/06/29 06:21:46;;;;;;;16.65;11.02;;;;;;;;;;4355210;32;20040;-78
2023/06/29 06:24:12;;;;;;;17.87;11.30;;;;;;;;;;4337343;33;20056;-77
2023/06/29 06:26:38;;;;;;;18.58;10.68;;;;;;;;;;4329612;33;20078;-77
2023/06/29 06:29:05;;;;;;;11.63;9.07;;;;;;;;;;4333664;33;20385;-76
2023/06/29 06:31:31;;;;;;;15.88;10.73;;;;;;;;;;4337742;33;20060;-77
2023/06/29 06:33:57;;;;;;;15.00;10.70;;;;;;;;;;4336593;33;20070;-77
2023/06/29 06:36:26;;;;;;;16.65;11.38;;;;;;;;;;4321880;33;20036;-76
2023/06/29 06:38:52;;;;;;;18.48;9.38;;;;;;;;;;4324551;33;20469;-79
2023/06/29 06:41:18;;;;;;;12.27;9.98;;;;;;;;;;4320177;33;20079;-78
2023/06/29 06:43:45;;;;;;;16.90;10.15;;;;;;;;;;4324537;33;20333;-77
2023/06/29 06:46:11;;;;;;;12.48;9.25;;;;;;;;;;4316272;33;20036;-77
2023/06/29 06:48:37;;;;;;;14.80;9.25;;;;;;;;;;4309395;33;20461;-77
2023/06/29 06:51:03;;;;;;;13.13;9.18;;;;;;;;;;4309964;33;20033;-77
2023/06/29 06:53:30;;;;;;;15.63;10.05;;;;;;;;;;4295383;33;20045;-77
2023/06/29 06:55:56;;;;;;;14.70;8.93;;;;;;;;;;4306022;33;20068;-77
2023/06/29 06:58:22;;;;;;;14.95;9.55;;;;;;;;;;4307280;33;20066;-78
2023/06/29 07:00:48;;;;;;;12.10;8.75;;;;;;;;;;4307993;33;20049;-78
2023/06/29 07:03:15;;;;;;;20.42;8.95;;;;;;;;;;4309557;33;20052;-78
2023/06/29 07:05:41;;;;;;;15.93;8.95;;;;;;;;;;4293481;33;20084;-78
2023/06/29 07:08:07;;;;;;;15.00;10.32;;;;;;;;;;4292274;33;20071;-75
2023/06/29 07:10:34;;;;;;;16.95;8.90;;;;;;;;;;4291378;33;20190;-79
2023/06/29 07:13:00;;;;;;;11.90;8.90;;;;;;;;;;4293735;33;20049;-78
2023/06/29 07:15:26;;;;;;;10.80;7.97;;;;;;;;;;4292799;33;20052;-84
2023/06/29 07:17:53;;;;;;;21.87;14.23;;;;;;;;;;4294940;33;20037;-75
2023/06/29 07:20:19;;;;;;;13.75;7.87;;;;;;;;;;4293172;33;20073;-77
2023/06/29 07:22:45;;;;;;;13.05;8.00;;;;;;;;;;4290114;33;20083;-77
2023/06/29 07:25:11;;;;;;;12.23;8.15;;;;;;;;;;4304354;33;20049;-77
2023/06/29 07:27:38;;;;;;;15.77;8.15;;;;;;;;;;4297914;33;20040;-78
2023/06/29 07:30:04;;;;;;;11.40;7.32;;;;;;;;;;4305745;33;20865;-77
2023/06/29 07:32:31;;;;;;;10.45;7.45;;;;;;;;;;4313718;33;20053;-78
2023/06/29 07:34:57;;;;;;;18.08;7.87;;;;;;;;;;4312088;33;20849;-78
2023/06/29 07:37:24;;;;;;;10.15;6.93;;;;;;;;;;4337321;32;20081;-76
2023/06/29 07:39:49;;;;;;;10.73;7.37;;;;;;;;;;4349560;32;20091;-78
2023/06/29 07:42:16;;;;;;;8.50;7.00;;;;;;;;;;4347111;32;20044;-79
2023/06/29 07:44:42;;;;;;;9.07;6.68;;;;;;;;;;4347547;32;20461;-78
2023/06/29 07:47:08;;;;;;;10.82;7.10;;;;;;;;;;4344163;32;20150;-78
2023/06/29 07:49:34;;;;;;;9.57;7.87;;;;;;;;;;4348081;32;20095;-77
2023/06/29 07:52:01;;;;;;;7.50;5.87;;;;;;;;;;4345659;32;20421;-78
2023/06/29 07:54:27;;;;;;;9.40;6.85;;;;;;;;;;4337182;33;20104;-78
2023/06/29 07:56:53;;;;;;;13.60;5.30;;;;;;;;;;4337767;33;20051;-79
2023/06/29 07:59:19;;;;;;;14.60;6.80;;;;;;;;;;4334434;33;20130;-78
2023/06/29 08:01:46;;;;;;;8.68;6.75;;;;;;;;;;4328720;33;20049;-78
2023/06/29 08:04:13;;;;;;;9.60;5.30;;;;;;;;;;4329045;33;20073;-78
2023/06/29 08:06:42;;;;;;;5.80;5.18;;;;;;;;;;4337522;33;20101;-78
2023/06/29 08:09:08;;;;;;;7.80;5.07;;;;;;;;;;4317123;33;20066;-81
2023/06/29 08:11:34;;;;;;;9.85;6.78;;;;;;;;;;4313566;33;21048;-78
2023/06/29 08:14:00;;;;;;;11.52;6.53;;;;;;;;;;4322790;33;20087;-77
2023/06/29 08:16:26;;;;;;;6.20;4.50;;;;;;;;;;4319858;33;20056;-76
2023/06/29 08:18:53;;;;;;;5.05;4.20;;;;;;;;;;4318086;33;20049;-76
2023/06/29 08:21:19;;;;;;;8.57;4.80;;;;;;;;;;4274603;33;20060;-77
2023/06/29 08:23:46;;;;;;;5.78;4.60;;;;;;;;;;4304226;33;20778;-76
2023/06/29 08:26:13;;;;;;;9.80;4.62;;;;;;;;;;4316852;33;20077;-76
2023/06/29 08:28:39;;;;;;;7.95;4.95;;;;;;;;;;4314785;33;20148;-77
2023/06/29 08:31:05;;;;;;;10.77;4.90;;;;;;;;;;4291714;33;20061;-77
2023/06/29 08:33:31;;;;;;;5.15;4.45;;;;;;;;;;4292825;33;20082;-78
2023/06/29 08:35:58;;;;;;;11.32;4.75;;;;;;;;;;4291884;33;20110;-77
2023/06/29 08:38:24;;;;;;;10.38;5.75;;;;;;;;;;4293275;33;20041;-77
2023/06/29 08:40:50;;;;;;;6.37;5.00;;;;;;;;;;4277980;33;20042;-78
2023/06/29 08:43:17;;;;;;;9.32;5.25;;;;;;;;;;4276594;33;20040;-78
2023/06/29 08:45:44;;;;;;;9.55;5.20;;;;;;;;;;4279335;33;20044;-77
2023/06/29 08:48:14;;;;;;;18.02;5.28;;;;;;;;;;4279804;33;20424;-78
2023/06/29 08:50:51;;;;;;;6.78;4.07;;;;;;;;;;4250596;33;20050;-78
2023/06/29 08:53:17;;;;;;;6.65;4.03;;;;;;;;;;4225051;33;20361;-78
2023/06/29 08:55:44;;;;;;;8.07;3.75;;;;;;;;;;4249842;33;20488;-78
2023/06/29 08:58:10;;;;;;;8.30;5.90;;;;;;;;;;4251085;33;20154;-78
2023/06/29 09:00:37;;;;;;;8.20;4.70;;;;;;;;;;4250403;33;20307;-78
2023/06/29 09:03:03;;;;;;;9.00;4.47;;;;;;;;;;4250828;33;20045;-77
2023/06/29 09:05:30;;;;;;;4.68;4.28;;;;;;;;;;4247678;33;20561;-77
2023/06/29 09:07:56;;;;;;;7.70;4.00;;;;;;;;;;4251973;33;20076;-77
2023/06/29 09:10:22;;;;;;;7.93;5.22;;;;;;;;;;4264322;33;20045;-77
2023/06/29 09:12:49;;;;;;;8.38;4.03;;;;;;;;;;4277237;33;20116;-77
2023/06/29 09:15:18;;;;;;;7.03;4.47;;;;;;;;;;4278809;33;20038;-76
2023/06/29 09:17:47;;;;;;;4.75;4.30;;;;;;;;;;4276858;33;20025;-77
2023/06/29 09:20:15;;;;;;;7.72;4.45;;;;;;;;;;4278746;33;20049;-76
2023/06/29 09:22:42;;;;;;;4.55;3.75;;;;;;;;;;4291135;33;20049;-76
2023/06/29 09:25:13;;;;;;;6.07;3.70;;;;;;;;;;4292130;33;20485;-76
2023/06/29 09:27:39;;;;;;;9.83;4.20;;;;;;;;;;4319119;33;20033;-77
2023/06/29 09:30:06;;;;;;;14.55;4.43;;;;;;;;;;4326749;33;20077;-76
2023/06/29 09:32:36;;;;;;;9.70;4.35;;;;;;;;;;4314019;33;20041;-77
2023/06/29 09:35:06;;;;;;;5.78;4.35;;;;;;;;;;4313401;33;20492;-77
2023/06/29 09:37:36;;;;;;;13.48;4.65;;;;;;;;;;4318390;33;20040;-77
2023/06/29 09:40:11;;;;;;;10.35;4.37;;;;;;;;;;4321539;33;20831;-77
2023/06/29 09:42:38;;;;;;;4.62;3.80;;;;;;;;;;4321747;33;20028;-76
2023/06/29 09:45:11;;;;;;;6.53;3.45;;;;;;;;;;4321803;33;20049;-76
2023/06/29 09:47:39;;;;;;;8.27;3.90;;;;;;;;;;4320326;33;20062;-76
2023/06/29 09:50:15;;;;;;;14.13;4.85;;;;;;;;;;4306909;33;20088;-75
2023/06/29 09:52:45;;;;;;;10.30;4.55;;;;;;;;;;4305551;33;20037;-76
2023/06/29 09:55:13;;;;;;;11.65;4.90;;;;;;;;;;4306098;33;20056;-77
2023/06/29 09:57:46;;;;;;;25.45;9.65;;;;;;;;;;4306543;33;20070;-76
2023/06/29 10:00:13;;;;;;;7.82;6.18;;;;;;;;;;4307549;33;20690;-76
2023/06/29 10:02:43;;;;;;;10.13;5.25;;;;;;;;;;4302692;33;20487;-77
2023/06/29 10:05:09;;;;;;;10.70;4.22;;;;;;;;;;4290717;33;20046;-77
2023/06/29 10:07:36;;;;;;;5.15;3.47;;;;;;;;;;4292947;33;20393;-77
2023/06/29 10:10:04;;;;;;;9.10;5.40;;;;;;;;;;4328183;33;20754;-77
2023/06/29 10:12:31;;;;;;;7.80;3.78;;;;;;;;;;4328784;33;20052;-77
2023/06/29 10:15:00;;;;;;;15.32;3.33;;;;;;;;;;4329209;33;20036;-77
2023/06/29 10:17:30;;;;;;;4.68;3.72;;;;;;;;;;4328966;33;20512;-77
2023/06/29 10:19:57;;;;;;;12.13;5.30;;;;;;;;;;4328504;33;20058;-77
2023/06/29 10:22:25;;;;;;;8.75;4.85;;;;;;;;;;4321157;33;20074;-77
2023/06/29 10:24:56;;;;;;;8.25;3.30;;;;;;;;;;4321825;33;20442;-77
2023/06/29 10:27:24;;;;;;;6.70;2.78;;;;;;;;;;4318319;33;20078;-76
2023/06/29 10:29:52;;;;;;;3.80;3.03;;;;;;;;;;4322204;33;20044;-77
2023/06/29 10:32:34;;;;;;;11.88;3.70;;;;;;;;;;4320878;33;20051;-77
2023/06/29 10:35:09;;;;;;;5.55;3.83;;;;;;;;;;4319172;33;20077;-78
2023/06/29 10:37:40;;;;;;;12.43;4.57;;;;;;;;;;4322283;33;20368;-75
2023/06/29 10:40:17;;;;;;;3.70;3.12;;;;;;;;;;4323975;33;20431;-76
2023/06/29 10:42:43;;;;;;;3.00;2.72;;;;;;;;;;4331832;33;20036;-77
2023/06/29 10:45:20;;;;;;;3.92;3.12;;;;;;;;;;4329084;33;20443;-77
2023/06/29 10:47:59;;;;;;;6.35;2.70;;;;;;;;;;4338984;33;20067;-77
2023/06/29 10:50:29;;;;;;;2.97;2.78;;;;;;;;;;4336489;33;20048;-77
2023/06/29 10:52:58;;;;;;;5.03;2.58;;;;;;;;;;4333748;33;20475;-77
2023/06/29 10:55:26;;;;;;;3.55;2.67;;;;;;;;;;4338677;33;20056;-78
2023/06/29 10:57:58;;;;;;;3.25;2.50;;;;;;;;;;4329131;33;20029;-76
2023/06/29 11:03:13;;;;;;;2.50;2.30;;;;;;;;;;4152665;30;19943;-76
2023/06/29 11:05:40;;;;;;;3.45;2.40;;;;;;;;;;4335074;33;20047;-79
2023/06/29 11:08:09;;;;;;;5.43;2.62;;;;;;;;;;4338572;33;20141;-78
2023/06/29 11:10:36;;;;;;;4.03;2.55;;;;;;;;;;4337012;33;20048;-78
2023/06/29 11:13:06;;;;;;;4.03;2.53;;;;;;;;;;4333007;33;20041;-75
2023/06/29 11:15:33;;;;;;;9.65;2.85;;;;;;;;;;4335696;33;20047;-79
2023/06/29 11:18:01;;;;;;;10.80;2.90;;;;;;;;;;4337427;33;20206;-75
2023/06/29 11:20:29;;;;;;;3.12;2.80;;;;;;;;;;4336707;33;20095;-78
2023/06/29 11:22:57;;;;;;;5.22;2.60;;;;;;;;;;4336946;33;20069;-79
2023/06/29 11:25:23;;;;;;;3.33;2.95;;;;;;;;;;4336408;33;20036;-79
2023/06/29 11:27:51;;;;;;;13.05;2.83;;;;;;;;;;4334736;33;20072;-79
2023/06/29 11:30:19;;;;;;;4.95;2.33;;;;;;;;;;4338479;33;20107;-79
2023/06/29 11:32:47;;;;;;;11.07;2.60;;;;;;;;;;4339579;33;20102;-78
2023/06/29 11:35:13;;;;;;;6.93;2.80;;;;;;;;;;4335448;33;20919;-78
2023/06/29 11:37:40;;;;;;;3.47;2.08;;;;;;;;;;4319164;33;20532;-81
2023/06/29 11:40:20;;;;;;;2.75;2.55;;;;;;;;;;4319616;33;20036;-78
2023/06/29 11:42:49;;;;;;;2.50;1.80;;;;;;;;;;4319098;33;20202;-78
2023/06/29 11:45:15;;;;;;;4.78;2.33;;;;;;;;;;4320157;33;20735;-77
2023/06/29 11:47:42;;;;;;;4.45;2.67;;;;;;;;;;4291631;33;20067;-79
2023/06/29 11:50:10;;;;;;;3.15;2.50;;;;;;;;;;4290652;33;20180;-78
2023/06/29 11:52:37;;;;;;;6.72;2.25;;;;;;;;;;4299887;33;20053;-78
2023/06/29 11:55:06;;;;;;;4.60;2.40;;;;;;;;;;4300870;33;20038;-80
2023/06/29 11:57:33;;;;;;;8.30;3.35;;;;;;;;;;4300051;33;20061;-77
2023/06/29 11:59:59;;;;;;;3.53;2.22;;;;;;;;;;4311967;33;20028;-76
2023/06/29 12:02:26;;;;;;;3.70;2.00;;;;;;;;;;4318049;33;20082;-79
2023/06/29 12:04:59;;;;;;;2.40;2.30;;;;;;;;;;4307448;33;20123;-75
2023/06/29 12:07:39;;;;;;;3.30;2.55;;;;;;;;;;4318496;33;20351;-77
2023/06/29 12:10:26;;;;;;;2.40;2.30;;;;;;;;;;4294016;33;20112;-74
2023/06/29 12:12:59;;;;;;;4.90;2.20;;;;;;;;;;4293843;33;20069;-78
2023/06/29 12:15:26;;;;;;;11.20;2.62;;;;;;;;;;4293653;33;20398;-79
2023/06/29 12:17:58;;;;;;;4.15;2.33;;;;;;;;;;4290285;33;20379;-78
2023/06/29 12:20:24;;;;;;;6.15;2.70;;;;;;;;;;4294126;33;20172;-78
2023/06/29 12:22:55;;;;;;;3.05;2.75;;;;;;;;;;4289592;33;20080;-78
2023/06/29 12:25:21;;;;;;;5.10;2.50;;;;;;;;;;4311829;33;20021;-77
2023/06/29 12:27:48;;;;;;;5.00;2.83;;;;;;;;;;4319740;33;20052;-78
2023/06/29 12:30:16;;;;;;;3.42;2.65;;;;;;;;;;4307527;33;20232;-77
2023/06/29 12:32:44;;;;;;;2.92;2.42;;;;;;;;;;4307726;33;20548;-78
2023/06/29 12:35:10;;;;;;;2.85;2.60;;;;;;;;;;4319236;33;20028;-77
2023/06/29 12:37:37;;;;;;;4.47;2.42;;;;;;;;;;4321896;33;20243;-79
2023/06/29 12:40:04;;;;;;;6.53;2.47;;;;;;;;;;4321192;33;20037;-77
2023/06/29 12:42:32;;;;;;;2.85;2.53;;;;;;;;;;4279508;33;20040;-76
2023/06/29 12:44:58;;;;;;;14.43;2.40;;;;;;;;;;4258570;33;20436;-75
2023/06/29 12:47:25;;;;;;;10.13;2.42;;;;;;;;;;4257329;33;20388;-76
2023/06/29 12:49:51;;;;;;;10.05;2.22;;;;;;;;;;4253191;33;20054;-77
2023/06/29 12:52:18;;;;;;;8.95;2.58;;;;;;;;;;4273215;33;20045;-76
2023/06/29 12:54:44;;;;;;;3.00;2.37;;;;;;;;;;4246496;33;20856;-76
2023/06/29 12:57:12;;;;;;;3.33;2.67;;;;;;;;;;4225836;33;20055;-77
2023/06/29 12:59:41;;;;;;;7.37;4.07;;;;;;;;;;4220404;34;20463;-78
2023/06/29 13:02:08;;;;;;;2.30;2.20;;;;;;;;;;4218396;34;20058;-76
2023/06/29 13:04:35;;;;;;;6.22;2.12;;;;;;;;;;4218056;33;20064;-78
2023/06/29 13:07:02;;;;;;;6.65;2.35;;;;;;;;;;4234650;33;20094;-77
2023/06/29 13:09:35;;;;;;;3.28;2.25;;;;;;;;;;4234196;33;20048;-77
2023/06/29 13:12:02;;;;;;;13.85;2.67;;;;;;;;;;4234440;33;20101;-76
2023/06/29 13:14:29;;;;;;;5.18;2.67;;;;;;;;;;4244905;33;20071;-77
2023/06/29 13:16:58;;;;;;;14.55;2.53;;;;;;;;;;4250581;33;20472;-75
2023/06/29 13:19:25;;;;;;;6.75;2.17;;;;;;;;;;4248287;33;20191;-76
2023/06/29 13:21:51;;;;;;;3.75;2.30;;;;;;;;;;4247940;33;20077;-76
2023/06/29 13:24:17;;;;;;;7.15;2.17;;;;;;;;;;4250276;33;20233;-78
2023/06/29 13:26:44;;;;;;;4.78;2.20;;;;;;;;;;4249089;33;20054;-76
2023/06/29 13:29:10;;;;;;;5.53;2.50;;;;;;;;;;4253303;33;20462;-75
2023/06/29 13:31:36;;;;;;;7.05;2.95;;;;;;;;;;4253966;33;20046;-80
2023/06/29 13:34:03;;;;;;;3.03;1.95;;;;;;;;;;4257404;33;20038;-76
2023/06/29 13:36:29;;;;;;;3.70;2.03;;;;;;;;;;4261098;33;20065;-75
2023/06/29 13:38:55;;;;;;;8.57;2.37;;;;;;;;;;4263824;33;20373;-76
2023/06/29 13:41:35;;;;;;;5.05;2.25;;;;;;;;;;4263279;33;20438;-76
2023/06/29 13:44:05;;;;;;;10.43;2.50;;;;;;;;;;4268483;33;20111;-76
2023/06/29 13:46:32;;;;;;;13.55;2.75;;;;;;;;;;4278526;33;20046;-76
2023/06/29 13:48:58;;;;;;;4.07;3.60;;;;;;;;;;4280667;33;20041;-76
2023/06/29 13:51:27;;;;;;;7.20;2.53;;;;;;;;;;4279704;33;20394;-75
2023/06/29 13:53:53;;;;;;;6.87;2.03;;;;;;;;;;4279667;33;20059;-75
2023/06/29 13:56:20;;;;;;;2.42;1.65;;;;;;;;;;4279352;33;20079;-76
2023/06/29 13:58:46;;;;;;;2.97;2.15;;;;;;;;;;4280862;33;20069;-76
2023/06/29 14:01:12;;;;;;;4.20;2.35;;;;;;;;;;4295874;33;20490;-76
2023/06/29 14:03:38;;;;;;;3.92;2.00;;;;;;;;;;4297719;33;20025;-78
2023/06/29 14:06:04;;;;;;;3.33;1.90;;;;;;;;;;4304746;33;20223;-77
2023/06/29 14:08:30;;;;;;;2.90;2.65;;;;;;;;;;4314736;33;20030;-75
2023/06/29 14:10:57;;;;;;;3.70;2.25;;;;;;;;;;4315197;33;20074;-76
2023/06/29 14:13:23;;;;;;;3.15;1.85;;;;;;;;;;4313497;33;20041;-75
2023/06/29 14:15:49;;;;;;;7.05;1.95;;;;;;;;;;4310283;33;20124;-77
2023/06/29 14:18:15;;;;;;;7.53;1.73;;;;;;;;;;4304796;33;20033;-77
2023/06/29 14:20:42;;;;;;;2.55;1.98;;;;;;;;;;4305672;33;20078;-76
2023/06/29 14:23:09;;;;;;;1.70;1.60;;;;;;;;;;4307278;33;20069;-77
2023/06/29 14:25:35;;;;;;;5.47;1.95;;;;;;;;;;4317631;33;20040;-77
2023/06/29 14:28:02;;;;;;;2.62;1.95;;;;;;;;;;4304452;33;20151;-78
2023/06/29 14:30:28;;;;;;;2.90;1.52;;;;;;;;;;4257328;33;20459;-77
2023/06/29 14:32:54;;;;;;;13.15;3.15;;;;;;;;;;4260903;33;20050;-77
2023/06/29 14:35:21;;;;;;;6.57;1.80;;;;;;;;;;4256974;33;20081;-76
2023/06/29 14:37:47;;;;;;;2.25;1.87;;;;;;;;;;4265727;33;20050;-79
2023/06/29 14:40:14;;;;;;;1.75;1.65;;;;;;;;;;4265797;33;20114;-81
2023/06/29 14:42:42;;;;;;;2.15;1.80;;;;;;;;;;4257674;33;20071;-77
2023/06/29 14:45:08;;;;;;;8.55;3.20;;;;;;;;;;4277869;33;20067;-77
2023/06/29 14:47:36;;;;;;;3.55;1.90;;;;;;;;;;4285917;33;20046;-79
2023/06/29 14:50:02;;;;;;;1.95;1.70;;;;;;;;;;4281788;33;20045;-80
2023/06/29 14:52:28;;;;;;;3.08;1.80;;;;;;;;;;4278795;33;20100;-75
2023/06/29 14:54:54;;;;;;;4.47;1.70;;;;;;;;;;4288513;33;20753;-75
2023/06/29 14:57:22;;;;;;;2.83;1.75;;;;;;;;;;4293196;33;20075;-76
2023/06/29 14:59:49;;;;;;;2.60;1.70;;;;;;;;;;4281559;33;20120;-74
2023/06/29 15:02:15;;;;;;;4.50;2.22;;;;;;;;;;4278930;33;20045;-78
2023/06/29 15:04:41;;;;;;;2.50;1.73;;;;;;;;;;4280208;33;20099;-77
2023/06/29 15:07:10;;;;;;;2.97;1.70;;;;;;;;;;4279882;33;20041;-75
2023/06/29 15:09:36;;;;;;;1.80;1.70;;;;;;;;;;4300062;33;20078;-76
2023/06/29 15:12:03;;;;;;;9.18;2.00;;;;;;;;;;4300956;33;20045;-80
2023/06/29 15:14:29;;;;;;;3.65;1.60;;;;;;;;;;4295502;33;20180;-75
2023/06/29 15:16:56;;;;;;;7.50;2.58;;;;;;;;;;4292362;33;20071;-76
2023/06/29 15:19:22;;;;;;;2.00;1.90;;;;;;;;;;4300061;33;20059;-79
2023/06/29 15:21:49;;;;;;;8.35;2.55;;;;;;;;;;4297685;33;20122;-79
2023/06/29 15:24:15;;;;;;;4.75;1.65;;;;;;;;;;4310042;33;20443;-81
2023/06/29 15:26:41;;;;;;;1.70;1.60;;;;;;;;;;4296977;33;20069;-75
2023/06/29 15:29:08;;;;;;;2.55;1.60;;;;;;;;;;4280521;33;20927;-78
2023/06/29 15:31:34;;;;;;;3.03;1.95;;;;;;;;;;4279148;33;20139;-78
2023/06/29 15:34:03;;;;;;;1.60;1.50;;;;;;;;;;4283452;33;21512;-76
2023/06/29 15:36:31;;;;;;;3.87;1.73;;;;;;;;;;4274151;33;20110;-77
2023/06/29 15:38:57;;;;;;;7.15;1.90;;;;;;;;;;4289686;33;20360;-77
2023/06/29 15:41:23;;;;;;;2.92;2.00;;;;;;;;;;4283379;33;20147;-75
2023/06/29 15:43:59;;;;;;;4.85;1.80;;;;;;;;;;4273585;33;20068;-75
2023/06/29 15:46:28;;;;;;;1.90;1.80;;;;;;;;;;4267434;33;20424;-77
2023/06/29 15:48:55;;;;;;;1.87;1.77;;;;;;;;;;4272827;33;20049;-76
2023/06/29 15:51:21;;;;;;;8.13;1.90;;;;;;;;;;4270451;33;20045;-76
2023/06/29 15:53:48;;;;;;;2.90;1.62;;;;;;;;;;4273078;33;20050;-75
2023/06/29 15:56:23;;;;;;;7.47;1.83;;;;;;;;;;4250050;33;20343;-75
2023/06/29 15:58:49;;;;;;;1.35;1.35;;;;;;;;;;4249848;33;20087;-76
2023/06/29 16:01:15;;;;;;;3.00;1.60;;;;;;;;;;4271855;33;21116;-76
2023/06/29 16:03:42;;;;;;;4.00;1.98;;;;;;;;;;4273979;33;20452;-75
2023/06/29 16:06:08;;;;;;;4.15;1.55;;;;;;;;;;4275388;33;20579;-75
2023/06/29 16:08:34;;;;;;;3.15;1.73;;;;;;;;;;4275710;33;20086;-75
2023/06/29 16:11:01;;;;;;;1.95;1.80;;;;;;;;;;4262697;33;20568;-83
2023/06/29 16:13:27;;;;;;;2.33;2.12;;;;;;;;;;4263654;33;20396;-83
2023/06/29 16:15:53;;;;;;;9.65;2.15;;;;;;;;;;4273628;33;20046;-82
2023/06/29 16:18:20;;;;;;;4.72;2.08;;;;;;;;;;4276290;33;20108;-79
2023/06/29 16:20:46;;;;;;;1.85;1.75;;;;;;;;;;4279763;33;20041;-75
2023/06/29 16:23:12;;;;;;;8.80;1.67;;;;;;;;;;4273979;33;20113;-78
2023/06/29 16:25:38;;;;;;;8.80;2.00;;;;;;;;;;4249334;33;20060;-76
2023/06/29 16:28:04;;;;;;;2.12;1.90;;;;;;;;;;4257615;33;20053;-76
2023/06/29 16:30:34;;;;;;;7.05;1.92;;;;;;;;;;4422327;28;20133;-75
2023/06/29 16:33:02;;;;;;;3.65;1.87;;;;;;;;;;4293165;33;20063;-74